createdAt,value
2022-11-25T00:01:34.112Z,8.19
2022-11-25T00:04:01.542Z,8.21
2022-11-25T00:06:32.312Z,8.21
2022-11-25T00:09:10.214Z,8.22
2022-11-25T00:11:40.783Z,8.24
2022-11-25T00:14:12.545Z,8.24
2022-11-25T00:16:42.578Z,8.26
2022-11-25T00:19:13.893Z,8.30
2022-11-25T00:21:40.708Z,8.24
2022-11-25T00:24:07.965Z,8.27
2022-11-25T00:26:36.859Z,8.29
2022-11-25T00:29:08.653Z,8.31
2022-11-25T00:31:39.274Z,8.31
2022-11-25T00:34:07.456Z,8.33
2022-11-25T00:36:37.682Z,8.34
2022-11-25T00:39:10.505Z,8.34
2022-11-25T00:41:56.514Z,8.33
2022-11-25T00:44:36.669Z,8.32
2022-11-25T00:47:10.997Z,8.29
2022-11-25T00:49:41.104Z,8.27
2022-11-25T00:52:10.575Z,8.22
2022-11-25T00:54:37.977Z,8.19
2022-11-25T00:57:05.073Z,8.14
2022-11-25T00:59:32.177Z,8.08
2022-11-25T01:01:59.288Z,7.96
2022-11-25T01:04:26.724Z,7.97
2022-11-25T01:06:54.375Z,8.00
2022-11-25T01:09:21.525Z,7.98
2022-11-25T01:11:51.430Z,8.00
2022-11-25T01:14:19.759Z,8.01
2022-11-25T01:16:47.420Z,8.00
2022-11-25T01:19:15.497Z,8.07
2022-11-25T01:21:42.926Z,8.13
2022-11-25T01:24:14.921Z,8.17
2022-11-25T01:26:43.729Z,8.20
2022-11-25T01:29:17.663Z,8.16
2022-11-25T01:31:45.697Z,8.10
2022-11-25T01:34:24.548Z,7.98
2022-11-25T01:36:51.443Z,7.90
2022-11-25T01:39:24.428Z,7.86
2022-11-25T01:41:55.437Z,7.84
2022-11-25T01:44:29.150Z,7.81
2022-11-25T01:47:15.291Z,7.81
2022-11-25T01:50:02.416Z,7.79
2022-11-25T01:52:35.609Z,7.75
2022-11-25T01:55:12.890Z,7.72
2022-11-25T01:57:45.858Z,7.66
2022-11-25T02:00:14.289Z,7.61
2022-11-25T02:02:42.023Z,7.59
2022-11-25T02:05:16.451Z,7.59
2022-11-25T02:07:48.610Z,7.61
2022-11-25T02:10:26.581Z,7.61
2022-11-25T02:12:54.037Z,7.58
2022-11-25T02:15:22.827Z,7.55
2022-11-25T02:17:50.297Z,7.55
2022-11-25T02:20:22.678Z,7.56
2022-11-25T02:22:57.928Z,7.58
2022-11-25T02:25:32.594Z,7.59
2022-11-25T02:28:12.354Z,7.63
2022-11-25T02:30:40.133Z,7.69
2022-11-25T02:33:07.692Z,7.71
2022-11-25T02:35:37.744Z,7.75
2022-11-25T02:38:31.224Z,7.72
2022-11-25T02:41:21.406Z,7.72
2022-11-25T02:43:48.908Z,7.72
2022-11-25T02:46:22.639Z,7.71
2022-11-25T02:49:09.934Z,7.69
2022-11-25T02:51:41.140Z,7.75
2022-11-25T02:54:08.154Z,7.75
2022-11-25T02:56:36.928Z,7.69
2022-11-25T02:59:04.782Z,7.64
2022-11-25T03:01:35.186Z,7.62
2022-11-25T03:04:02.780Z,7.56
2022-11-25T03:06:31.818Z,7.56
2022-11-25T03:08:58.901Z,7.53
2022-11-25T03:11:46.312Z,7.51
2022-11-25T03:14:13.411Z,7.51
2022-11-25T03:16:40.600Z,7.51
2022-11-25T03:19:08.582Z,7.47
2022-11-25T03:21:35.808Z,7.46
2022-11-25T03:24:02.654Z,7.42
2022-11-25T03:26:29.904Z,7.41
2022-11-25T03:28:56.725Z,7.42
2022-11-25T03:31:23.899Z,7.40
2022-11-25T03:33:51.109Z,7.35
2022-11-25T03:36:18.246Z,7.31
2022-11-25T03:38:45.115Z,7.28
2022-11-25T03:41:12.329Z,7.26
2022-11-25T03:43:39.263Z,7.22
2022-11-25T03:46:06.460Z,7.18
2022-11-25T03:48:33.327Z,7.13
2022-11-25T03:51:00.392Z,7.04
2022-11-25T03:53:27.265Z,6.99
2022-11-25T03:55:54.313Z,6.98
2022-11-25T03:58:21.249Z,6.97
2022-11-25T04:00:48.443Z,6.96
2022-11-25T04:03:15.322Z,6.95
2022-11-25T04:05:42.688Z,6.97
2022-11-25T04:08:09.569Z,6.96
2022-11-25T04:10:36.698Z,6.97
2022-11-25T04:13:03.561Z,6.97
2022-11-25T04:15:30.778Z,6.97
2022-11-25T04:17:57.666Z,6.98
2022-11-25T04:20:25.043Z,7.00
2022-11-25T04:22:51.918Z,7.03
2022-11-25T04:25:19.163Z,7.05
2022-11-25T04:27:46.102Z,7.09
2022-11-25T04:30:13.594Z,7.12
2022-11-25T04:32:40.613Z,7.14
2022-11-25T04:35:08.265Z,7.17
2022-11-25T04:37:35.344Z,7.17
2022-11-25T04:40:02.517Z,7.21
2022-11-25T04:42:32.281Z,7.24
2022-11-25T04:45:22.024Z,7.22
2022-11-25T04:47:49.049Z,7.25
2022-11-25T04:50:20.319Z,7.29
2022-11-25T04:52:47.305Z,7.31
2022-11-25T04:55:14.764Z,7.32
2022-11-25T04:57:41.813Z,7.33
2022-11-25T05:00:10.319Z,7.31
2022-11-25T05:02:37.543Z,7.35
2022-11-25T05:05:05.885Z,7.40
2022-11-25T05:07:33.021Z,7.44
2022-11-25T05:10:00.244Z,7.41
2022-11-25T05:12:29.582Z,7.40
2022-11-25T05:14:57.435Z,7.45
2022-11-25T05:17:30.900Z,7.46
2022-11-25T05:19:58.359Z,7.45
2022-11-25T05:22:29.095Z,7.44
2022-11-25T05:24:56.645Z,7.41
2022-11-25T05:27:24.786Z,7.40
2022-11-25T05:29:55.978Z,7.40
2022-11-25T05:32:23.850Z,7.38
2022-11-25T05:34:51.024Z,7.36
2022-11-25T05:37:22.858Z,7.35
2022-11-25T05:39:51.737Z,7.32
2022-11-25T05:42:18.574Z,7.31
2022-11-25T05:44:45.797Z,7.27
2022-11-25T05:47:12.721Z,7.26
2022-11-25T05:49:40.161Z,7.25
2022-11-25T05:52:07.073Z,7.27
2022-11-25T05:54:34.607Z,7.28
2022-11-25T05:57:01.790Z,7.26
2022-11-25T05:59:29.052Z,7.23
2022-11-25T06:01:55.985Z,7.21
2022-11-25T06:04:23.185Z,7.19
2022-11-25T06:06:50.239Z,7.15
2022-11-25T06:09:17.367Z,7.12
2022-11-25T06:11:44.407Z,7.09
2022-11-25T06:14:11.475Z,7.03
2022-11-25T06:16:38.298Z,6.97
2022-11-25T06:19:06.776Z,6.92
2022-11-25T06:21:33.882Z,6.86
2022-11-25T06:24:01.608Z,6.82
2022-11-25T06:26:28.520Z,6.78
2022-11-25T06:28:56.704Z,6.77
2022-11-25T06:31:26.324Z,6.74
2022-11-25T06:33:54.648Z,6.69
2022-11-25T06:36:23.113Z,6.70
2022-11-25T06:38:53.747Z,6.69
2022-11-25T06:41:22.658Z,6.67
2022-11-25T06:43:50.582Z,6.66
2022-11-25T06:46:24.753Z,6.61
2022-11-25T06:48:55.771Z,6.57
2022-11-25T06:51:24.617Z,6.49
2022-11-25T06:53:52.930Z,6.45
2022-11-25T06:56:24.140Z,6.45
2022-11-25T06:58:52.621Z,6.44
2022-11-25T07:01:22.586Z,6.43
2022-11-25T07:03:53.962Z,6.40
2022-11-25T07:06:21.878Z,6.36
2022-11-25T07:08:49.313Z,6.34
2022-11-25T07:11:25.046Z,6.35
2022-11-25T07:13:55.525Z,6.31
2022-11-25T07:16:23.260Z,6.33
2022-11-25T07:18:50.459Z,6.33
2022-11-25T07:21:23.191Z,6.21
2022-11-25T07:23:52.612Z,6.09
2022-11-25T07:26:29.793Z,5.98
2022-11-25T07:29:02.656Z,6.00
2022-11-25T07:31:42.597Z,5.93
2022-11-25T07:34:20.610Z,5.92
2022-11-25T07:36:50.199Z,5.86
2022-11-25T07:39:21.435Z,5.86
2022-11-25T07:41:53.801Z,5.79
2022-11-25T07:44:21.581Z,5.62
2022-11-25T07:46:50.277Z,5.68
2022-11-25T07:49:21.519Z,5.75
2022-11-25T07:51:55.225Z,5.76
2022-11-25T07:54:23.996Z,5.82
2022-11-25T07:56:51.746Z,5.86
2022-11-25T07:59:22.341Z,5.95
2022-11-25T08:01:54.436Z,6.00
2022-11-25T08:04:22.916Z,6.05
2022-11-25T08:06:52.750Z,6.10
2022-11-25T08:09:23.948Z,6.25
2022-11-25T08:11:51.602Z,6.36
2022-11-25T08:14:19.073Z,6.46
2022-11-25T08:16:46.820Z,6.53
2022-11-25T08:19:17.351Z,6.56
2022-11-25T08:21:47.965Z,6.64
2022-11-25T08:24:21.020Z,6.69
2022-11-25T08:26:48.743Z,6.79
2022-11-25T08:29:19.130Z,6.84
2022-11-25T08:31:46.806Z,6.88
2022-11-25T08:34:21.925Z,6.97
2022-11-25T08:36:49.401Z,6.99
2022-11-25T08:42:07.740Z,6.86
2022-11-25T08:44:35.792Z,6.88
2022-11-25T08:47:03.101Z,6.94
2022-11-25T08:49:33.660Z,6.98
2022-11-25T08:52:03.572Z,6.99
2022-11-25T08:54:30.759Z,7.04
2022-11-25T08:56:58.116Z,7.09
2022-11-25T08:59:25.375Z,7.12
2022-11-25T09:01:52.709Z,7.11
2022-11-25T09:04:19.804Z,7.13
2022-11-25T09:06:47.067Z,7.10
2022-11-25T09:09:13.917Z,7.13
2022-11-25T09:11:42.392Z,7.09
2022-11-25T09:14:09.511Z,7.19
2022-11-25T09:16:36.632Z,7.24
2022-11-25T09:19:04.301Z,7.32
2022-11-25T09:21:31.520Z,7.37
2022-11-25T09:23:58.449Z,7.40
2022-11-25T09:26:29.950Z,7.44
2022-11-25T09:28:58.081Z,7.51
2022-11-25T09:31:25.456Z,7.47
2022-11-25T09:33:52.770Z,7.50
2022-11-25T09:36:21.355Z,7.52
2022-11-25T09:38:48.338Z,7.54
2022-11-25T09:41:56.099Z,7.55
2022-11-25T09:45:00.919Z,7.67
2022-11-25T09:47:55.690Z,7.67
2022-11-25T09:51:04.804Z,7.74
2022-11-25T09:53:47.530Z,7.77
2022-11-25T09:56:31.685Z,7.78
2022-11-25T09:59:15.110Z,7.81
2022-11-25T10:02:16.591Z,7.86
2022-11-25T10:05:18.202Z,8.00
2022-11-25T10:07:53.051Z,8.07
2022-11-25T10:10:31.106Z,8.07
2022-11-25T10:12:59.591Z,8.05
2022-11-25T10:15:40.712Z,8.06
2022-11-25T10:18:25.429Z,8.01
2022-11-25T10:20:54.194Z,8.05
2022-11-25T10:23:38.872Z,8.07
2022-11-25T10:26:15.196Z,8.09
2022-11-25T10:29:03.250Z,8.15
2022-11-25T10:31:36.719Z,8.21
2022-11-25T10:34:20.568Z,8.26
2022-11-25T10:36:53.010Z,8.33
2022-11-25T10:39:31.752Z,8.27
2022-11-25T10:42:07.267Z,8.34
2022-11-25T10:44:37.838Z,8.33
2022-11-25T10:47:20.309Z,8.37
2022-11-25T10:50:05.920Z,8.40
2022-11-25T10:53:08.417Z,8.45
2022-11-25T10:55:36.055Z,8.50
2022-11-25T10:58:28.546Z,8.43
2022-11-25T11:01:16.595Z,8.47
2022-11-25T11:03:51.346Z,8.57
2022-11-25T11:06:50.302Z,8.67
2022-11-25T11:09:40.894Z,8.75
2022-11-25T11:12:22.907Z,8.80
2022-11-25T11:14:53.319Z,8.81
2022-11-25T11:17:40.704Z,8.77
2022-11-25T11:20:07.793Z,8.80
2022-11-25T11:23:10.110Z,8.81
2022-11-25T11:25:41.169Z,8.84
2022-11-25T11:28:34.965Z,8.85
2022-11-25T11:31:20.616Z,8.86
2022-11-25T11:33:47.281Z,8.81
2022-11-25T11:36:44.121Z,8.76
2022-11-25T11:39:23.980Z,8.82
2022-11-25T11:42:25.219Z,8.84
2022-11-25T11:45:34.245Z,8.91
2022-11-25T11:48:32.319Z,8.99
2022-11-25T11:51:46.720Z,9.03
2022-11-25T11:54:53.025Z,9.06
2022-11-25T11:57:40.032Z,9.08
2022-11-25T12:00:14.061Z,9.06
2022-11-25T12:03:03.389Z,9.10
2022-11-25T12:05:37.209Z,9.02
2022-11-25T12:08:20.835Z,8.96
2022-11-25T12:11:10.019Z,9.02
2022-11-25T12:14:11.759Z,9.02
2022-11-25T12:16:53.402Z,9.08
2022-11-25T12:19:44.867Z,9.12
2022-11-25T12:23:05.182Z,9.15
2022-11-25T12:25:41.498Z,9.19
2022-11-25T12:28:31.237Z,9.22
2022-11-25T12:31:13.043Z,9.24
2022-11-25T12:34:17.104Z,9.25
2022-11-25T12:36:47.375Z,9.29
2022-11-25T12:39:28.815Z,9.30
2022-11-25T12:42:02.366Z,9.33
2022-11-25T12:44:44.708Z,9.37
2022-11-25T12:47:12.034Z,9.42
2022-11-25T12:49:45.515Z,9.45
2022-11-25T12:53:05.282Z,9.46
2022-11-25T12:55:35.079Z,9.49
2022-11-25T12:58:57.090Z,9.45
2022-11-25T13:01:39.130Z,9.40
2022-11-25T13:04:40.631Z,9.44
2022-11-25T13:07:32.185Z,9.48
2022-11-25T13:10:36.780Z,9.53
2022-11-25T13:13:24.903Z,9.62
2022-11-25T13:15:56.563Z,9.68
2022-11-25T13:18:30.545Z,9.75
2022-11-25T13:21:10.585Z,9.74
2022-11-25T13:23:58.750Z,9.73
2022-11-25T13:26:37.053Z,9.72
2022-11-25T13:29:28.177Z,9.70
2022-11-25T13:31:59.573Z,9.67
2022-11-25T13:34:37.237Z,9.70
2022-11-25T13:37:39.862Z,9.68
2022-11-25T13:40:40.114Z,9.67
2022-11-25T13:43:23.896Z,9.66
2022-11-25T13:45:51.431Z,9.63
2022-11-25T13:48:27.613Z,9.59
2022-11-25T13:51:25.034Z,9.59
2022-11-25T13:54:07.328Z,9.60
2022-11-25T13:56:37.543Z,9.53
2022-11-25T13:59:10.544Z,9.48
2022-11-25T14:01:41.611Z,9.47
2022-11-25T14:04:13.815Z,9.42
2022-11-25T14:06:59.933Z,9.39
2022-11-25T14:10:11.112Z,9.32
2022-11-25T14:12:47.216Z,9.28
2022-11-25T14:15:51.902Z,9.22
2022-11-25T14:21:57.163Z,9.08
2022-11-25T14:24:34.536Z,9.06
2022-11-25T14:27:02.983Z,9.01
2022-11-25T14:29:37.927Z,8.96
2022-11-25T14:32:14.731Z,8.93
2022-11-25T14:34:59.740Z,8.89
2022-11-25T14:37:44.276Z,8.89
2022-11-25T14:40:29.027Z,8.80
2022-11-25T14:43:20.548Z,8.79
2022-11-25T14:46:18.190Z,8.78
2022-11-25T14:48:45.062Z,8.76
2022-11-25T14:51:13.992Z,8.73
2022-11-25T14:54:05.112Z,8.72
2022-11-25T14:56:36.854Z,8.72
2022-11-25T14:59:04.047Z,8.73
2022-11-25T15:01:34.772Z,8.74
2022-11-25T15:04:19.256Z,8.73
2022-11-25T15:07:00.893Z,8.72
2022-11-25T15:09:30.619Z,8.68
2022-11-25T15:12:03.976Z,8.66
2022-11-25T15:14:37.786Z,8.65
2022-11-25T15:17:30.633Z,8.64
2022-11-25T15:20:12.859Z,8.64
2022-11-25T15:22:46.685Z,8.63
2022-11-25T15:25:15.934Z,8.64
2022-11-25T15:27:52.007Z,8.65
2022-11-25T15:30:29.517Z,8.65
2022-11-25T15:32:57.542Z,8.65
2022-11-25T15:35:27.332Z,8.64
2022-11-25T15:37:54.550Z,8.63
2022-11-25T15:40:43.179Z,8.63
2022-11-25T15:43:27.399Z,8.63
2022-11-25T15:46:05.043Z,8.64
2022-11-25T15:48:46.550Z,8.64
2022-11-25T15:51:41.850Z,8.66
2022-11-25T15:54:31.501Z,8.64
2022-11-25T15:57:14.739Z,8.65
2022-11-25T15:59:55.123Z,8.64
2022-11-25T16:02:42.503Z,8.64
2022-11-25T16:05:12.470Z,8.64
2022-11-25T16:08:02.921Z,8.59
2022-11-25T16:10:45.435Z,8.54
2022-11-25T16:13:22.393Z,8.51
2022-11-25T16:16:08.182Z,8.50
2022-11-25T16:19:02.506Z,8.48
2022-11-25T16:21:36.848Z,8.48
2022-11-25T16:24:07.015Z,8.47
2022-11-25T16:26:56.992Z,8.47
2022-11-25T16:29:49.121Z,8.46
2022-11-25T16:32:24.056Z,8.38
2022-11-25T16:34:51.221Z,8.38
2022-11-25T16:37:18.412Z,8.35
2022-11-25T16:39:45.349Z,8.37
2022-11-25T16:42:21.878Z,8.37
2022-11-25T16:44:52.664Z,8.31
2022-11-25T16:47:22.635Z,8.28
2022-11-25T16:49:49.668Z,8.24
2022-11-25T16:52:16.839Z,8.17
2022-11-25T16:54:44.249Z,8.13
2022-11-25T16:57:21.907Z,8.10
2022-11-25T16:59:55.930Z,8.10
2022-11-25T17:02:26.139Z,8.10
2022-11-25T17:04:53.200Z,8.08
2022-11-25T17:07:36.077Z,8.04
2022-11-25T17:10:03.842Z,8.05
2022-11-25T17:12:34.906Z,8.04
2022-11-25T17:15:06.844Z,8.01
2022-11-25T17:17:34.550Z,7.91
2022-11-25T17:20:01.499Z,7.90
2022-11-25T17:22:32.300Z,7.85
2022-11-25T17:25:03.078Z,7.80
2022-11-25T17:27:35.700Z,7.77
2022-11-25T17:30:06.652Z,7.72
2022-11-25T17:32:35.709Z,7.64
2022-11-25T17:35:02.598Z,7.61
2022-11-25T17:37:31.180Z,7.54
2022-11-25T17:39:58.112Z,7.57
2022-11-25T17:42:32.394Z,7.49
2022-11-25T17:45:00.787Z,7.48
2022-11-25T17:47:28.379Z,7.43
2022-11-25T17:49:55.482Z,7.39
2022-11-25T17:52:25.362Z,7.26
2022-11-25T17:54:52.267Z,7.27
2022-11-25T17:57:21.965Z,7.19
2022-11-25T17:59:49.569Z,7.11
2022-11-25T18:02:22.789Z,7.13
2022-11-25T18:04:50.493Z,7.13
2022-11-25T18:07:19.073Z,7.14
2022-11-25T18:09:46.138Z,7.19
2022-11-25T18:12:28.797Z,7.24
2022-11-25T18:14:57.711Z,7.20
2022-11-25T18:17:24.996Z,7.16
2022-11-25T18:19:55.215Z,7.15
2022-11-25T18:22:24.295Z,7.12
2022-11-25T18:24:52.743Z,7.10
2022-11-25T18:27:24.281Z,7.14
2022-11-25T18:29:52.466Z,7.14
2022-11-25T18:32:21.003Z,7.12
2022-11-25T18:34:48.156Z,7.11
2022-11-25T18:37:15.549Z,7.11
2022-11-25T18:39:42.490Z,7.14
2022-11-25T18:42:27.327Z,7.13
2022-11-25T18:44:56.085Z,7.15
2022-11-25T18:47:23.533Z,7.13
2022-11-25T18:49:55.402Z,7.13
2022-11-25T18:52:25.093Z,7.13
2022-11-25T18:54:52.406Z,7.14
2022-11-25T18:57:20.034Z,7.17
2022-11-25T19:00:10.212Z,7.19
2022-11-25T19:02:35.646Z,7.21
2022-11-25T19:05:15.217Z,7.26
2022-11-25T19:07:45.549Z,7.30
2022-11-25T19:10:14.119Z,7.30
2022-11-25T19:12:46.010Z,7.33
2022-11-25T19:15:19.269Z,7.30
2022-11-25T19:17:51.872Z,7.33
2022-11-25T19:20:21.688Z,7.33
2022-11-25T19:22:49.467Z,7.35
2022-11-25T19:25:16.475Z,7.37
2022-11-25T19:27:55.441Z,7.36
2022-11-25T19:30:27.856Z,7.42
2022-11-25T19:32:59.452Z,7.33
2022-11-25T19:35:32.346Z,7.26
2022-11-25T19:37:59.525Z,7.26
2022-11-25T19:40:26.554Z,7.29
2022-11-25T19:42:53.669Z,7.32
2022-11-25T19:45:22.514Z,7.33
2022-11-25T19:47:52.398Z,7.32
2022-11-25T19:50:29.256Z,7.34
2022-11-25T19:52:56.442Z,7.33
2022-11-25T19:55:28.652Z,7.31
2022-11-25T19:57:56.685Z,7.31
2022-11-25T20:00:25.331Z,7.30
2022-11-25T20:02:56.345Z,7.29
2022-11-25T20:05:35.192Z,7.24
2022-11-25T20:08:02.848Z,7.20
2022-11-25T20:10:32.681Z,7.19
2022-11-25T20:13:00.027Z,7.16
2022-11-25T20:15:27.600Z,7.14
2022-11-25T20:18:00.152Z,7.18
2022-11-25T20:20:35.116Z,7.18
2022-11-25T20:23:09.137Z,7.16
2022-11-25T20:25:43.967Z,7.12
2022-11-25T20:28:27.879Z,7.09
2022-11-25T20:30:55.047Z,7.12
2022-11-25T20:33:24.952Z,7.15
2022-11-25T20:36:11.095Z,7.21
2022-11-25T20:38:47.482Z,7.25
2022-11-25T20:41:16.305Z,7.26
2022-11-25T20:43:48.200Z,7.26
2022-11-25T20:46:23.303Z,7.28
2022-11-25T20:49:01.927Z,7.30
2022-11-25T20:51:29.601Z,7.30
2022-11-25T20:54:02.852Z,7.28
2022-11-25T20:56:30.116Z,7.25
2022-11-25T20:58:57.302Z,7.26
2022-11-25T21:01:25.183Z,7.30
2022-11-25T21:03:52.384Z,7.30
2022-11-25T21:06:28.891Z,7.29
2022-11-25T21:09:01.097Z,7.31
2022-11-25T21:11:32.875Z,7.27
2022-11-25T21:14:00.274Z,7.26
2022-11-25T21:16:27.711Z,7.28
2022-11-25T21:18:55.642Z,7.27
2022-11-25T21:21:36.063Z,7.30
2022-11-25T21:24:11.643Z,7.29
2022-11-25T21:26:38.594Z,7.31
2022-11-25T21:29:05.978Z,7.30
2022-11-25T21:31:32.921Z,7.32
2022-11-25T21:34:02.467Z,7.33
2022-11-25T21:36:31.644Z,7.34
2022-11-25T21:39:31.147Z,7.38
2022-11-25T21:42:03.353Z,7.42
2022-11-25T21:44:40.149Z,7.44
2022-11-25T21:47:22.901Z,7.47
2022-11-25T21:49:51.069Z,7.52
2022-11-25T21:52:19.229Z,7.53
2022-11-25T21:54:47.437Z,7.55
2022-11-25T21:57:21.834Z,7.57
2022-11-25T21:59:49.272Z,7.58
2022-11-25T22:02:20.286Z,7.56
2022-11-25T22:04:47.621Z,7.58
2022-11-25T22:07:14.502Z,7.59
2022-11-25T22:09:42.520Z,7.58
2022-11-25T22:12:30.683Z,7.56
2022-11-25T22:15:00.661Z,7.56
2022-11-25T22:17:29.937Z,7.58
2022-11-25T22:19:57.936Z,7.57
2022-11-25T22:22:24.822Z,7.56
2022-11-25T22:24:51.930Z,7.57
2022-11-25T22:27:28.232Z,7.57
2022-11-25T22:29:56.080Z,7.58
2022-11-25T22:32:22.909Z,7.57
2022-11-25T22:34:50.020Z,7.57
2022-11-25T22:37:23.601Z,7.58
2022-11-25T22:39:51.383Z,7.57
2022-11-25T22:42:36.674Z,7.53
2022-11-25T22:45:08.263Z,7.53
2022-11-25T22:47:41.044Z,7.50
2022-11-25T22:50:28.554Z,7.49
2022-11-25T22:52:56.947Z,7.46
2022-11-25T22:55:31.079Z,7.47
2022-11-25T22:58:01.217Z,7.46
2022-11-25T23:00:33.240Z,7.45
2022-11-25T23:03:02.866Z,7.45
2022-11-25T23:05:39.435Z,7.44
2022-11-25T23:08:17.234Z,7.48
2022-11-25T23:10:45.575Z,7.50
2022-11-25T23:13:14.609Z,7.51
2022-11-25T23:15:53.647Z,7.51
2022-11-25T23:18:50.900Z,7.52
2022-11-25T23:21:55.652Z,7.49
2022-11-25T23:24:22.510Z,7.50
2022-11-25T23:26:49.654Z,7.53
2022-11-25T23:29:16.504Z,7.52
2022-11-25T23:31:43.672Z,7.55
2022-11-25T23:34:13.538Z,7.57
2022-11-25T23:36:46.403Z,7.60
2022-11-25T23:39:22.561Z,7.62
2022-11-25T23:41:50.518Z,7.63
2022-11-25T23:44:31.458Z,7.63
2022-11-25T23:47:05.713Z,7.58
2022-11-25T23:49:41.325Z,7.57
2022-11-25T23:52:13.858Z,7.57
2022-11-25T23:54:47.193Z,7.59
2022-11-25T23:57:21.210Z,7.58
2022-11-25T23:59:49.421Z,7.60
